createdAt,value
2022-11-28T00:01:03.694Z,101452.72
2022-11-28T00:03:32.078Z,101456.25
2022-11-28T00:06:04.460Z,101463.16
2022-11-28T00:08:34.291Z,101455.03
2022-11-28T00:11:04.065Z,101458.16
2022-11-28T00:13:31.711Z,101451.06
2022-11-28T00:16:00.699Z,101450.44
2022-11-28T00:18:28.929Z,101450.44
2022-11-28T00:21:01.129Z,101446.69
2022-11-28T00:23:28.907Z,101440.22
2022-11-28T00:25:59.822Z,101436.22
2022-11-28T00:28:27.488Z,101433.13
2022-11-28T00:30:55.383Z,101430.59
2022-11-28T00:33:23.275Z,101428.53
2022-11-28T00:35:51.108Z,101428.75
2022-11-28T00:38:18.732Z,101424.16
2022-11-28T00:40:47.958Z,101423.94
2022-11-28T00:43:16.949Z,101416.00
2022-11-28T00:45:44.618Z,101408.94
2022-11-28T00:48:12.337Z,101414.59
2022-11-28T00:50:39.950Z,101413.09
2022-11-28T00:53:07.600Z,101414.75
2022-11-28T00:55:35.243Z,101413.53
2022-11-28T00:58:02.845Z,101411.25
2022-11-28T01:00:31.923Z,101416.03
2022-11-28T01:02:59.608Z,101415.22
2022-11-28T01:05:27.498Z,101409.59
2022-11-28T01:07:55.235Z,101413.38
2022-11-28T01:10:23.228Z,101406.66
2022-11-28T01:12:50.825Z,101404.34
2022-11-28T01:15:18.496Z,101402.91
2022-11-28T01:17:47.575Z,101400.63
2022-11-28T01:20:15.649Z,101396.69
2022-11-28T01:22:43.294Z,101389.59
2022-11-28T01:25:10.954Z,101384.97
2022-11-28T01:27:38.639Z,101388.13
2022-11-28T01:30:07.559Z,101385.41
2022-11-28T01:32:35.268Z,101375.84
2022-11-28T01:35:04.656Z,101378.75
2022-11-28T01:37:32.520Z,101371.03
2022-11-28T01:40:00.197Z,101365.38
2022-11-28T01:42:27.844Z,101371.41
2022-11-28T01:45:21.458Z,101364.97
2022-11-28T01:47:52.300Z,101363.50
2022-11-28T01:50:23.455Z,101353.47
2022-11-28T01:52:56.255Z,101355.97
2022-11-28T01:55:27.735Z,101353.25
2022-11-28T01:57:57.002Z,101354.50
2022-11-28T02:00:25.106Z,101358.69
2022-11-28T02:02:56.921Z,101348.69
2022-11-28T02:05:26.081Z,101352.41
2022-11-28T02:07:54.069Z,101357.41
2022-11-28T02:10:27.169Z,101353.25
2022-11-28T02:13:20.029Z,101350.31
2022-11-28T02:16:09.283Z,101342.44
2022-11-28T02:18:52.981Z,101339.09
2022-11-28T02:21:44.580Z,101329.03
2022-11-28T02:24:55.778Z,101333.03
2022-11-28T02:27:40.226Z,101323.84
2022-11-28T02:30:15.642Z,101323.41
2022-11-28T02:32:58.478Z,101319.66
2022-11-28T02:35:34.405Z,101310.47
2022-11-28T02:38:10.148Z,101312.94
2022-11-28T02:40:41.108Z,101308.16
2022-11-28T02:43:17.884Z,101305.03
2022-11-28T02:45:51.237Z,101306.53
2022-11-28T02:48:28.215Z,101316.53
2022-11-28T02:51:02.132Z,101309.84
2022-11-28T02:53:33.283Z,101302.53
2022-11-28T02:56:01.598Z,101305.84
2022-11-28T02:58:29.232Z,101299.22
2022-11-28T03:00:57.351Z,101297.53
2022-11-28T03:04:11.044Z,101301.88
2022-11-28T03:06:49.510Z,101277.91
2022-11-28T03:09:35.963Z,101286.09
2022-11-28T03:12:13.895Z,101285.28
2022-11-28T03:14:51.044Z,101274.63
2022-11-28T03:17:25.191Z,101270.47
2022-11-28T03:20:00.523Z,101262.75
2022-11-28T03:22:33.926Z,101259.44
2022-11-28T03:25:09.323Z,101260.91
2022-11-28T03:27:44.012Z,101264.22
2022-11-28T03:30:19.442Z,101263.16
2022-11-28T03:32:51.191Z,101263.19
2022-11-28T03:35:24.690Z,101262.16
2022-11-28T03:37:55.670Z,101263.63
2022-11-28T03:40:27.426Z,101262.59
2022-11-28T03:43:00.411Z,101262.38
2022-11-28T03:45:32.566Z,101256.28
2022-11-28T03:48:05.922Z,101261.09
2022-11-28T03:50:39.178Z,101264.47
2022-11-28T03:53:12.642Z,101253.63
2022-11-28T03:55:44.614Z,101256.38
2022-11-28T03:58:22.194Z,101246.56
2022-11-28T04:00:57.016Z,101250.28
2022-11-28T04:03:30.882Z,101248.00
2022-11-28T04:06:03.542Z,101246.13
2022-11-28T04:08:34.318Z,101250.94
2022-11-28T04:11:08.541Z,101248.41
2022-11-28T04:13:39.256Z,101250.72
2022-11-28T04:16:13.932Z,101246.34
2022-11-28T04:18:53.626Z,101244.69
2022-11-28T04:21:29.442Z,101238.66
2022-11-28T04:24:01.503Z,101242.41
2022-11-28T04:26:33.155Z,101234.06
2022-11-28T04:29:04.387Z,101234.28
2022-11-28T04:31:33.789Z,101227.00
2022-11-28T04:34:05.822Z,101233.06
2022-11-28T04:36:38.803Z,101231.38
2022-11-28T04:39:10.996Z,101222.66
2022-11-28T04:41:43.836Z,101225.34
2022-11-28T04:44:16.349Z,101226.00
2022-11-28T04:46:49.317Z,101219.97
2022-11-28T04:49:17.026Z,101226.59
2022-11-28T04:51:53.297Z,101223.47
2022-11-28T04:54:28.612Z,101227.03
2022-11-28T04:57:01.344Z,101218.75
2022-11-28T04:59:31.912Z,101223.53
2022-11-28T05:02:02.460Z,101220.00
2022-11-28T05:04:30.017Z,101229.16
2022-11-28T05:07:04.035Z,101222.25
2022-11-28T05:09:31.705Z,101224.78
2022-11-28T05:11:59.346Z,101229.16
2022-11-28T05:14:27.041Z,101228.72
2022-11-28T05:16:54.811Z,101223.94
2022-11-28T05:19:22.497Z,101222.88
2022-11-28T05:21:50.166Z,101222.47
2022-11-28T05:24:19.147Z,101220.53
2022-11-28T05:26:46.811Z,101219.50
2022-11-28T05:29:14.609Z,101223.66
2022-11-28T05:31:42.257Z,101219.94
2022-11-28T05:34:09.995Z,101229.28
2022-11-28T05:36:37.668Z,101214.25
2022-11-28T05:39:05.391Z,101223.88
2022-11-28T05:41:35.233Z,101214.09
2022-11-28T05:44:02.982Z,101208.69
2022-11-28T05:46:30.769Z,101206.16
2022-11-28T05:48:58.528Z,101209.06
2022-11-28T05:51:26.212Z,101208.84
2022-11-28T05:53:53.895Z,101206.34
2022-11-28T05:56:23.902Z,101201.16
2022-11-28T05:58:53.851Z,101200.94
2022-11-28T06:01:23.266Z,101198.00
2022-11-28T06:03:51.918Z,101208.25
2022-11-28T06:06:21.654Z,101190.97
2022-11-28T06:08:51.498Z,101190.13
2022-11-28T06:11:20.192Z,101181.97
2022-11-28T06:13:49.074Z,101183.00
2022-11-28T06:16:20.459Z,101179.41
2022-11-28T06:18:48.187Z,101174.78
2022-11-28T06:21:16.414Z,101166.72
2022-11-28T06:23:44.261Z,101172.38
2022-11-28T06:26:13.799Z,101167.34
2022-11-28T06:28:41.897Z,101173.19
2022-11-28T06:31:12.127Z,101167.94
2022-11-28T06:33:41.461Z,101166.09
2022-11-28T06:36:10.862Z,101155.94
2022-11-28T06:38:38.797Z,101142.34
2022-11-28T06:41:08.599Z,101155.44
2022-11-28T06:43:36.318Z,101156.31
2022-11-28T06:46:04.082Z,101151.25
2022-11-28T06:48:32.358Z,101157.47
2022-11-28T06:51:05.092Z,101154.63
2022-11-28T06:53:32.876Z,101158.41
2022-11-28T06:56:06.684Z,101151.31
2022-11-28T06:58:34.936Z,101151.94
2022-11-28T07:01:10.369Z,101154.91
2022-11-28T07:03:39.344Z,101153.69
2022-11-28T07:06:09.368Z,101155.53
2022-11-28T07:08:37.616Z,101147.22
2022-11-28T07:11:10.316Z,101153.44
2022-11-28T07:13:38.403Z,101153.69
2022-11-28T07:16:06.711Z,101147.88
2022-11-28T07:18:34.945Z,101146.56
2022-11-28T07:21:02.652Z,101152.38
2022-11-28T07:23:31.691Z,101146.16
2022-11-28T07:26:00.473Z,101148.66
2022-11-28T07:28:28.764Z,101157.22
2022-11-28T07:31:02.578Z,101159.09
2022-11-28T07:33:30.532Z,101159.94
2022-11-28T07:36:01.993Z,101147.41
2022-11-28T07:38:31.258Z,101150.31
2022-11-28T07:41:04.249Z,101151.31
2022-11-28T07:43:31.905Z,101152.59
2022-11-28T07:46:01.366Z,101155.53
2022-11-28T07:48:29.366Z,101159.47
2022-11-28T07:50:57.025Z,101156.56
2022-11-28T07:53:24.656Z,101157.78
2022-11-28T07:55:53.655Z,101155.47
2022-11-28T07:58:22.108Z,101147.97
2022-11-28T08:00:49.839Z,101149.22
2022-11-28T08:03:17.485Z,101145.47
2022-11-28T08:05:49.368Z,101155.47
2022-11-28T08:08:17.373Z,101151.94
2022-11-28T08:10:45.510Z,101150.47
2022-11-28T08:13:14.985Z,101158.16
2022-11-28T08:15:42.754Z,101150.75
2022-11-28T08:18:10.464Z,101145.16
2022-11-28T08:20:38.914Z,101140.72
2022-11-28T08:23:06.595Z,101138.69
2022-11-28T08:25:34.499Z,101135.75
2022-11-28T08:28:02.143Z,101142.63
2022-11-28T08:30:31.260Z,101129.88
2022-11-28T08:32:59.216Z,101129.66
2022-11-28T08:35:26.840Z,101125.28
2022-11-28T08:37:57.695Z,101126.50
2022-11-28T08:40:29.220Z,101128.31
2022-11-28T08:42:56.871Z,101129.81
2022-11-28T08:45:24.556Z,101123.50
2022-11-28T08:47:53.514Z,101126.41
2022-11-28T08:50:21.171Z,101123.47
2022-11-28T08:52:49.953Z,101124.50
2022-11-28T08:55:19.963Z,101128.84
2022-11-28T08:57:51.273Z,101125.72
2022-11-28T09:00:20.410Z,101125.88
2022-11-28T09:02:48.058Z,101130.44
2022-11-28T09:05:17.132Z,101120.59
2022-11-28T09:07:44.808Z,101128.53
2022-11-28T09:10:12.624Z,101123.34
2022-11-28T09:12:40.262Z,101126.66
2022-11-28T09:15:09.082Z,101131.19
2022-11-28T09:17:36.726Z,101127.66
2022-11-28T09:20:05.109Z,101131.81
2022-11-28T09:22:34.198Z,101138.84
2022-11-28T09:25:01.843Z,101129.84
2022-11-28T09:27:29.545Z,101138.38
2022-11-28T09:29:57.150Z,101138.53
2022-11-28T09:32:24.783Z,101136.25
2022-11-28T09:34:52.487Z,101127.47
2022-11-28T09:37:20.139Z,101129.19
2022-11-28T09:40:11.502Z,101128.34
2022-11-28T09:42:41.791Z,101130.13
2022-11-28T09:45:16.432Z,101128.59
2022-11-28T09:47:46.896Z,101130.84
2022-11-28T09:50:16.795Z,101120.91
2022-11-28T09:52:49.377Z,101120.66
2022-11-28T09:55:30.479Z,101118.94
2022-11-28T09:57:58.870Z,101120.16
2022-11-28T10:00:35.830Z,101111.19
2022-11-28T10:03:31.850Z,101109.53
2022-11-28T10:06:10.292Z,101104.25
2022-11-28T10:08:52.153Z,101101.28
2022-11-28T10:11:39.149Z,101108.75
2022-11-28T10:14:26.023Z,101105.69
2022-11-28T10:17:02.660Z,101117.28
2022-11-28T10:19:53.893Z,101114.56
2022-11-28T10:22:36.630Z,101122.13
2022-11-28T10:25:12.525Z,101106.19
2022-11-28T10:27:42.115Z,101103.19
2022-11-28T10:30:19.049Z,101110.88
2022-11-28T10:32:54.540Z,101115.09
2022-11-28T10:35:29.483Z,101111.19
2022-11-28T10:37:57.469Z,101100.47
2022-11-28T10:40:35.644Z,101103.31
2022-11-28T10:43:12.040Z,101096.97
2022-11-28T10:45:48.919Z,101095.22
2022-11-28T10:48:43.771Z,101083.97
2022-11-28T10:51:23.418Z,101090.50
2022-11-28T10:54:00.938Z,101098.31
2022-11-28T10:56:38.751Z,101084.88
2022-11-28T10:59:18.226Z,101078.59
2022-11-28T11:01:49.933Z,101082.22
2022-11-28T11:04:20.701Z,101081.75
2022-11-28T11:07:08.857Z,101082.75
2022-11-28T11:09:39.106Z,101085.59
2022-11-28T11:12:15.764Z,101085.00
2022-11-28T11:14:45.007Z,101080.41
2022-11-28T11:17:30.155Z,101082.06
2022-11-28T11:20:02.400Z,101085.03
2022-11-28T11:22:32.007Z,101080.47
2022-11-28T11:25:15.499Z,101080.78
2022-11-28T11:27:49.958Z,101069.56
2022-11-28T11:30:27.239Z,101072.97
2022-11-28T11:32:56.047Z,101072.63
2022-11-28T11:35:26.190Z,101072.78
2022-11-28T11:37:53.997Z,101072.31
2022-11-28T11:40:26.783Z,101084.28
2022-11-28T11:42:56.654Z,101071.16
2022-11-28T11:45:31.372Z,101052.81
2022-11-28T11:47:59.137Z,101061.94
2022-11-28T11:50:28.769Z,101068.66
2022-11-28T11:53:05.335Z,101068.66
2022-11-28T11:55:37.135Z,101068.09
2022-11-28T11:58:06.187Z,101069.75
2022-11-28T12:00:39.336Z,101064.91
2022-11-28T12:03:16.348Z,101061.13
2022-11-28T12:06:13.333Z,101061.81
2022-11-28T12:08:44.675Z,101061.47
2022-11-28T12:11:17.062Z,101047.63
2022-11-28T12:13:44.864Z,101048.81
2022-11-28T12:16:31.741Z,101058.41
2022-11-28T12:19:09.571Z,101049.44
2022-11-28T12:21:48.119Z,101045.84
2022-11-28T12:24:17.652Z,101046.22
2022-11-28T12:26:50.395Z,101043.84
2022-11-28T12:29:40.724Z,101041.50
2022-11-28T12:32:32.272Z,101032.16
2022-11-28T12:35:15.327Z,101028.09
2022-11-28T12:38:10.144Z,101037.09
2022-11-28T12:40:47.815Z,101033.31
2022-11-28T12:43:32.082Z,101023.50
2022-11-28T12:46:06.754Z,101019.34
2022-11-28T12:48:53.267Z,101027.50
2022-11-28T12:51:32.547Z,101007.16
2022-11-28T12:54:18.208Z,101010.59
2022-11-28T12:56:55.222Z,101011.16
2022-11-28T12:59:28.998Z,101012.72
2022-11-28T13:02:09.454Z,101013.88
2022-11-28T13:05:04.450Z,101011.41
2022-11-28T13:07:44.816Z,101021.09
2022-11-28T13:10:21.603Z,101018.16
2022-11-28T13:12:55.857Z,101024.53
2022-11-28T13:15:42.822Z,101016.72
2022-11-28T13:18:20.683Z,101016.84
2022-11-28T13:20:54.081Z,101007.28
2022-11-28T13:23:28.509Z,101012.59
2022-11-28T13:26:04.368Z,101010.34
2022-11-28T13:28:39.614Z,101009.78
2022-11-28T13:31:18.631Z,101014.84
2022-11-28T13:33:51.621Z,101009.28
2022-11-28T13:39:23.727Z,100997.47
2022-11-28T13:44:54.433Z,101001.22
2022-11-28T13:47:29.683Z,101007.38
2022-11-28T13:50:36.216Z,101010.22
2022-11-28T13:53:22.264Z,101003.81
2022-11-28T13:55:51.240Z,101005.94
2022-11-28T13:58:23.787Z,101009.81
2022-11-28T14:01:16.177Z,101011.53
2022-11-28T14:03:47.773Z,101012.38
2022-11-28T14:06:19.951Z,101008.69
2022-11-28T14:08:59.633Z,101015.31
2022-11-28T14:11:55.066Z,101009.88
2022-11-28T14:14:48.115Z,101010.28
2022-11-28T14:17:41.302Z,101008.31
2022-11-28T14:20:22.040Z,101001.81
2022-11-28T14:23:03.487Z,101005.72
2022-11-28T14:25:35.097Z,101006.66
2022-11-28T14:28:06.400Z,101001.56
2022-11-28T14:30:37.041Z,101001.69
2022-11-28T14:33:08.721Z,100999.06
2022-11-28T14:36:15.919Z,100997.28
2022-11-28T14:38:47.553Z,101001.31
2022-11-28T14:41:16.856Z,101002.84
2022-11-28T14:43:46.105Z,101002.50
2022-11-28T14:46:26.169Z,101000.13
2022-11-28T14:49:20.214Z,101001.31
2022-11-28T14:52:38.522Z,101013.91
2022-11-28T14:55:18.665Z,101011.53
2022-11-28T14:57:57.972Z,101011.63
2022-11-28T15:00:28.787Z,101010.94
2022-11-28T15:03:18.800Z,101010.13
2022-11-28T15:05:48.870Z,101004.44
2022-11-28T15:08:45.415Z,101008.75
2022-11-28T15:11:22.315Z,101008.91
2022-11-28T15:14:08.756Z,101007.09
2022-11-28T15:16:42.753Z,101007.94
2022-11-28T15:19:17.575Z,101006.81
2022-11-28T15:21:47.135Z,101012.63
2022-11-28T15:24:24.892Z,101005.97
2022-11-28T15:26:57.661Z,101009.09
2022-11-28T15:29:29.116Z,101003.34
2022-11-28T15:31:58.693Z,101006.69
2022-11-28T15:34:29.030Z,101009.84
2022-11-28T15:36:58.757Z,101012.47
2022-11-28T15:39:30.490Z,101009.63
2022-11-28T15:42:01.399Z,101017.75
2022-11-28T15:44:31.408Z,101013.06
2022-11-28T15:46:59.575Z,101008.09
2022-11-28T15:49:30.472Z,101013.53
2022-11-28T15:52:01.033Z,101008.09
2022-11-28T15:54:36.543Z,101014.13
2022-11-28T15:57:05.638Z,101013.31
2022-11-28T15:59:35.143Z,101009.09
2022-11-28T16:02:12.785Z,101017.22
2022-11-28T16:04:41.316Z,101010.81
2022-11-28T16:07:15.754Z,101024.16
2022-11-28T16:09:54.946Z,101019.66
2022-11-28T16:12:22.914Z,101015.69
2022-11-28T16:14:55.243Z,101026.94
2022-11-28T16:17:28.902Z,101020.91
2022-11-28T16:19:57.718Z,101016.75
2022-11-28T16:22:33.449Z,101022.13
2022-11-28T16:25:13.812Z,101029.66
2022-11-28T16:27:45.490Z,101032.38
2022-11-28T16:30:33.298Z,101028.16
2022-11-28T16:33:01.071Z,101025.88
2022-11-28T16:35:31.368Z,101026.56
2022-11-28T16:38:07.199Z,101028.91
2022-11-28T16:40:34.866Z,101032.81
2022-11-28T16:43:05.059Z,101028.47
2022-11-28T16:45:34.904Z,101024.75
2022-11-28T16:48:08.526Z,101021.44
2022-11-28T16:50:36.931Z,101019.19
2022-11-28T16:53:05.493Z,101015.81
2022-11-28T16:55:45.089Z,101022.09
2022-11-28T16:58:21.427Z,101021.28
2022-11-28T17:01:09.866Z,101027.16
2022-11-28T17:03:48.641Z,101029.88
2022-11-28T17:06:19.925Z,101027.97
2022-11-28T17:08:47.598Z,101031.38
2022-11-28T17:11:17.823Z,101037.00
2022-11-28T17:13:45.488Z,101032.59
2022-11-28T17:16:21.402Z,101029.47
2022-11-28T17:18:49.562Z,101032.19
2022-11-28T17:21:19.795Z,101020.13
2022-11-28T17:23:47.440Z,101018.84
2022-11-28T17:26:15.050Z,101017.13
2022-11-28T17:28:42.695Z,101015.25
2022-11-28T17:31:13.588Z,101015.47
2022-11-28T17:33:44.872Z,101013.34
2022-11-28T17:36:14.371Z,101015.91
2022-11-28T17:38:42.004Z,101012.59
2022-11-28T17:41:13.239Z,101017.81
2022-11-28T17:43:41.176Z,101014.25
2022-11-28T17:46:09.115Z,101013.06
2022-11-28T17:48:36.925Z,101020.59
2022-11-28T17:51:06.187Z,101026.38
2022-11-28T17:53:33.835Z,101015.97
2022-11-28T17:56:01.506Z,101007.03
2022-11-28T17:58:29.232Z,101008.78
2022-11-28T18:01:00.491Z,101020.44
2022-11-28T18:03:28.869Z,101016.31
2022-11-28T18:05:56.601Z,101017.56
2022-11-28T18:08:25.634Z,101019.09
2022-11-28T18:11:03.600Z,101015.31
2022-11-28T18:13:31.567Z,101012.00
2022-11-28T18:15:59.210Z,101005.28
2022-11-28T18:18:26.831Z,101002.50
2022-11-28T18:20:54.965Z,101002.75
2022-11-28T18:23:23.121Z,101013.41
2022-11-28T18:25:52.139Z,101009.97
2022-11-28T18:28:20.956Z,101005.75
2022-11-28T18:30:49.295Z,100995.50
2022-11-28T18:33:18.524Z,100999.03
2022-11-28T18:35:46.185Z,101006.78
2022-11-28T18:38:13.794Z,101004.16
2022-11-28T18:40:41.467Z,101000.25
2022-11-28T18:43:10.526Z,101008.00
2022-11-28T18:45:38.193Z,101004.94
2022-11-28T18:48:06.643Z,101006.88
2022-11-28T18:50:35.675Z,101015.22
2022-11-28T18:53:03.366Z,101011.25
2022-11-28T18:55:31.019Z,101010.28
2022-11-28T18:57:59.350Z,101008.09
2022-11-28T19:00:28.452Z,100999.34
2022-11-28T19:02:56.121Z,101005.97
2022-11-28T19:05:23.800Z,101005.75
2022-11-28T19:07:51.491Z,101001.38
2022-11-28T19:10:19.268Z,101000.56
2022-11-28T19:12:47.029Z,100997.25
2022-11-28T19:15:14.741Z,101006.97
2022-11-28T19:17:43.742Z,101004.88
2022-11-28T19:20:12.484Z,101010.94
2022-11-28T19:22:40.092Z,101008.25
2022-11-28T19:25:09.215Z,101005.97
2022-11-28T19:27:36.869Z,101010.09
2022-11-28T19:30:04.800Z,100994.06
2022-11-28T19:32:32.558Z,100999.59
2022-11-28T19:35:01.560Z,100989.19
2022-11-28T19:37:29.204Z,100988.34
2022-11-28T19:40:02.151Z,100993.56
2022-11-28T19:42:30.360Z,100998.19
2022-11-28T19:44:57.996Z,101004.69
2022-11-28T19:47:25.611Z,101010.56
2022-11-28T19:49:53.260Z,101008.09
2022-11-28T19:52:22.206Z,101006.88
2022-11-28T19:54:49.911Z,101016.13
2022-11-28T19:57:17.579Z,101009.91
2022-11-28T19:59:45.510Z,101008.00
2022-11-28T20:02:13.591Z,101003.28
2022-11-28T20:04:43.364Z,101012.66
2022-11-28T20:07:10.995Z,101008.44
2022-11-28T20:09:40.028Z,101010.50
2022-11-28T20:12:07.695Z,101012.41
2022-11-28T20:14:35.604Z,101012.09
2022-11-28T20:17:03.260Z,101018.34
2022-11-28T20:19:30.942Z,101017.81
2022-11-28T20:21:58.983Z,101017.72
2022-11-28T20:24:26.702Z,101022.19
2022-11-28T20:26:56.819Z,101022.47
2022-11-28T20:29:26.666Z,101025.16
2022-11-28T20:31:56.901Z,101026.81
2022-11-28T20:34:24.802Z,101030.84
2022-11-28T20:36:53.698Z,101022.69
2022-11-28T20:39:21.814Z,101029.34
2022-11-28T20:41:49.443Z,101027.66
2022-11-28T20:44:19.173Z,101027.06
2022-11-28T20:46:49.442Z,101029.53
2022-11-28T20:49:17.368Z,101021.66
2022-11-28T20:51:45.019Z,101018.69
2022-11-28T20:54:14.159Z,101028.94
2022-11-28T20:57:12.883Z,101030.44
2022-11-28T20:59:32.298Z,101020.00
2022-11-28T21:02:00.010Z,101023.75
2022-11-28T21:04:27.734Z,101020.81
2022-11-28T21:06:55.338Z,101014.78
2022-11-28T21:09:23.037Z,101013.50
2022-11-28T21:11:57.378Z,101014.06
2022-11-28T21:14:26.594Z,101013.88
2022-11-28T21:16:55.969Z,101015.31
2022-11-28T21:19:23.782Z,101019.69
2022-11-28T21:21:51.502Z,101033.47
2022-11-28T21:24:19.261Z,101018.47
2022-11-28T21:26:53.026Z,101028.47
2022-11-28T21:29:21.689Z,101019.38
2022-11-28T21:31:49.470Z,101014.31
2022-11-28T21:34:19.290Z,101020.59
2022-11-28T21:36:47.274Z,101021.13
2022-11-28T21:39:16.770Z,101015.25
2022-11-28T21:41:44.459Z,101018.63
2022-11-28T21:44:12.126Z,101016.97
2022-11-28T21:46:39.748Z,101010.94
2022-11-28T21:49:07.552Z,101008.84
2022-11-28T21:51:36.601Z,101017.44
2022-11-28T21:54:04.396Z,101009.06
2022-11-28T21:56:32.097Z,101009.69
2022-11-28T21:58:59.727Z,101008.25
2022-11-28T22:01:27.411Z,101009.91
2022-11-28T22:04:00.620Z,101014.16
2022-11-28T22:06:30.481Z,101017.56
2022-11-28T22:09:02.184Z,101006.34
2022-11-28T22:11:33.400Z,101006.13
2022-11-28T22:14:01.037Z,101006.72
2022-11-28T22:16:30.250Z,101014.66
2022-11-28T22:19:00.847Z,101017.44
2022-11-28T22:21:50.993Z,101013.06
2022-11-28T22:24:17.727Z,101013.88
2022-11-28T22:26:45.444Z,101013.66
2022-11-28T22:29:13.169Z,101013.22
2022-11-28T22:31:40.884Z,101010.94
2022-11-28T22:34:09.327Z,101013.88
2022-11-28T22:36:36.952Z,101023.06
2022-11-28T22:39:04.657Z,101018.84
2022-11-28T22:41:33.646Z,101010.19
2022-11-28T22:44:03.765Z,101011.00
2022-11-28T22:46:31.900Z,101013.31
2022-11-28T22:49:00.598Z,101020.75
2022-11-28T22:51:29.688Z,101022.19
2022-11-28T22:53:59.467Z,101024.13
2022-11-28T22:56:27.783Z,101020.13
2022-11-28T22:58:56.810Z,101024.97
2022-11-28T23:01:26.501Z,101025.63
2022-11-28T23:03:55.008Z,101021.91
2022-11-28T23:06:24.268Z,101026.06
2022-11-28T23:08:52.626Z,101030.44
2022-11-28T23:11:22.990Z,101023.97
2022-11-28T23:13:52.035Z,101022.75
2022-11-28T23:16:23.926Z,101016.72
2022-11-28T23:18:53.852Z,101018.84
2022-11-28T23:21:22.899Z,101016.13
2022-11-28T23:23:50.989Z,101019.19
2022-11-28T23:26:20.860Z,101011.31
2022-11-28T23:28:48.835Z,101011.75
2022-11-28T23:31:18.384Z,101013.41
2022-11-28T23:33:47.703Z,101014.81
2022-11-28T23:36:16.996Z,101017.34
2022-11-28T23:38:46.019Z,101019.66
2022-11-28T23:41:14.582Z,101022.09
2022-11-28T23:43:42.764Z,101019.59
2022-11-28T23:46:11.709Z,101019.59
2022-11-28T23:48:39.752Z,101020.94
2022-11-28T23:51:08.997Z,101021.09
2022-11-28T23:53:37.382Z,101025.06
2022-11-28T23:56:06.266Z,101022.00
2022-11-28T23:58:34.858Z,101025.53
